Time;durP1;ratioP1;P1;durP2;ratioP2;P2;SDS_P1;SDS_P2;PMS_P1;PMS_P2;Temp;Humidity;BMP_temperature;BMP_pressure;BME280_temperature;BME280_humidity;BME280_pressure;Samples;Min_cycle;Max_cycle;Signal;HPM_P1;HPM_P2
2023/12/22 00:02:10;;;;;;;1.93;0.03;;;8.80;99.90;;;8.51;68.10;99825.59;4620087;28;101212;-38
2023/12/22 00:04:35;;;;;;;0.53;0.37;;;8.70;99.90;;;8.49;68.15;99821.31;4800098;28;98267;-37
2023/12/22 00:07:05;;;;;;;0.53;0.20;;;8.70;99.90;;;8.53;69.42;99801.88;4886169;28;100672;-37
2023/12/22 00:09:30;;;;;;;1.07;0.10;;;8.70;99.90;;;8.53;67.50;99807.97;4877206;28;126132;-37
2023/12/22 00:12:08;;;;;;;0.77;0.30;;;8.80;99.90;;;8.28;68.28;99828.25;4870723;28;120913;-36
2023/12/22 00:14:40;;;;;;;4.27;0.50;;;8.60;99.90;;;8.26;68.21;99815.19;4843703;28;98400;-37
2023/12/22 00:17:08;;;;;;;0.47;0.17;;;8.60;99.90;;;8.22;68.76;99810.94;4857690;28;97716;-36
2023/12/22 00:19:42;;;;;;;2.77;0.93;;;8.60;99.90;;;8.19;68.88;99802.34;4826336;28;114686;-36
2023/12/22 00:22:08;;;;;;;1.60;0.33;;;8.50;99.90;;;8.17;69.05;99784.00;4832376;28;102991;-37
2023/12/22 00:24:34;;;;;;;1.30;0.30;;;8.50;99.90;;;8.17;68.91;99793.66;4843070;28;98212;-36
2023/12/22 00:27:06;;;;;;;5.97;0.60;;;8.60;99.90;;;8.21;68.83;99805.75;4865545;28;98919;-37
2023/12/22 00:29:37;;;;;;;1.90;0.23;;;8.50;99.90;;;8.20;68.51;99814.56;4860092;28;103465;-37
2023/12/22 00:32:03;;;;;;;0.47;0.20;;;8.50;99.90;;;8.21;69.11;99813.63;4837541;28;102420;-37
2023/12/22 00:34:36;;;;;;;0.57;0.20;;;8.50;99.90;;;8.27;68.35;99834.44;4865184;28;98115;-37
2023/12/22 00:37:05;;;;;;;3.17;0.57;;;8.60;99.90;;;8.24;68.54;99842.41;4880975;28;97472;-36
2023/12/22 00:39:31;;;;;;;0.53;0.20;;;8.50;99.90;;;8.23;67.86;99799.50;4867291;28;106405;-36
2023/12/22 00:41:57;;;;;;;0.80;0.27;;;8.50;99.90;;;8.51;69.34;99814.22;4851031;28;98976;-36
2023/12/22 00:44:23;;;;;;;2.47;0.20;;;8.70;99.90;;;8.43;66.86;99800.56;4845617;28;105362;-36
2023/12/22 00:46:56;;;;;;;1.90;0.60;;;8.70;99.90;;;8.49;66.31;99795.88;4876723;28;100323;-37
2023/12/22 00:49:22;;;;;;;7.13;0.83;;;8.80;99.90;;;8.63;66.52;99772.50;4879730;28;100277;-36
2023/12/22 00:51:51;;;;;;;1.40;0.60;;;8.90;99.90;;;8.79;65.79;99777.97;4869784;28;107693;-37
2023/12/22 00:54:18;;;;;;;3.07;0.60;;;9.00;99.90;;;8.85;64.35;99803.19;4833282;28;110548;-36
2023/12/22 00:56:44;;;;;;;2.33;0.53;;;9.10;99.90;;;9.07;64.54;99797.84;4851279;28;101891;-37
2023/12/22 00:59:25;;;;;;;1.07;0.40;;;9.30;99.90;;;9.10;65.04;99822.25;4855890;28;122247;-37
2023/12/22 01:01:51;;;;;;;2.13;0.30;;;9.30;99.90;;;8.97;64.22;99847.38;4766792;28;99032;-37
2023/12/22 01:04:20;;;;;;;2.00;0.70;;;9.30;99.90;;;8.96;64.36;99848.28;4854087;28;100787;-37
2023/12/22 01:06:50;;;;;;;2.47;0.93;;;9.20;99.90;;;9.05;64.55;99853.16;4880740;28;103254;-37
2023/12/22 01:09:16;;;;;;;1.97;0.47;;;9.30;99.90;;;9.16;65.23;99850.94;4862765;28;99700;-36
2023/12/22 01:11:41;;;;;;;1.27;0.60;;;9.40;99.90;;;9.11;66.36;99858.19;4785684;28;116913;-37
2023/12/22 01:14:16;;;;;;;1.13;0.73;;;9.30;99.90;;;8.90;65.86;99865.19;4807750;28;104797;-37
2023/12/22 01:16:42;;;;;;;4.63;1.40;;;9.20;99.90;;;8.85;65.85;99861.91;4863569;28;97847;-36
2023/12/22 01:19:09;;;;;;;1.13;0.50;;;9.20;99.90;;;8.77;66.31;99852.59;4809320;28;100934;-37
2023/12/22 01:21:41;;;;;;;2.83;0.77;;;9.10;99.90;;;8.70;66.49;99856.41;4819732;28;106342;-37
2023/12/22 01:24:10;;;;;;;2.30;0.10;;;9.00;99.90;;;8.56;67.35;99849.94;4876876;28;99101;-36
2023/12/22 01:26:36;;;;;;;2.57;0.53;;;8.90;99.90;;;8.59;67.39;99854.22;4841966;28;99602;-37
2023/12/22 01:29:30;;;;;;;0.30;0.10;;;8.90;99.90;;;8.73;67.17;99835.25;4876046;28;98520;-36
2023/12/22 01:31:57;;;;;;;0.73;0.20;;;9.00;99.90;;;8.61;67.76;99837.44;4872654;28;101717;-37
2023/12/22 01:34:23;;;;;;;3.67;0.30;;;8.90;99.90;;;8.60;67.20;99837.50;4766362;28;97545;-37
2023/12/22 01:36:49;;;;;;;0.20;0.07;;;9.00;99.90;;;8.50;67.64;99850.16;4873620;28;99659;-40
2023/12/22 01:39:16;;;;;;;3.17;0.33;;;8.80;99.90;;;8.54;68.48;99843.88;4857851;28;99632;-36
2023/12/22 01:41:42;;;;;;;4.33;0.97;;;8.80;99.90;;;8.50;68.57;99865.94;4869924;28;101586;-37
2023/12/22 01:44:08;;;;;;;2.03;0.67;;;8.80;99.90;;;8.36;69.42;99889.25;4837206;28;99840;-37
2023/12/22 01:46:35;;;;;;;1.70;0.20;;;8.80;99.90;;;8.28;70.37;99870.28;4841161;28;113643;-37
2023/12/22 01:49:01;;;;;;;1.43;0.50;;;8.60;99.90;;;8.27;69.69;99852.81;4819014;28;102386;-37
2023/12/22 01:51:35;;;;;;;0.50;0.20;;;8.70;99.90;;;8.25;70.31;99842.38;4854189;28;100682;-36
2023/12/22 01:54:01;;;;;;;3.13;0.27;;;8.60;99.90;;;8.24;70.28;99838.00;4816682;28;98332;-36
2023/12/22 01:56:42;;;;;;;1.40;0.10;;;8.60;99.90;;;8.18;69.92;99856.66;4821400;28;103923;-38
2023/12/22 01:59:44;;;;;;;0.80;0.30;;;8.50;99.90;;;8.20;69.98;99882.84;4866410;28;104267;-36
2023/12/22 02:02:10;;;;;;;1.67;0.27;;;8.50;99.90;;;8.11;70.02;99876.19;4819190;28;103062;-37
2023/12/22 02:04:36;;;;;;;1.10;0.13;;;8.40;99.90;;;8.23;69.60;99862.56;4846128;28;97210;-40
2023/12/22 02:07:10;;;;;;;1.50;0.23;;;8.50;99.90;;;8.23;69.14;99873.06;4832025;28;102284;-36
2023/12/22 02:09:37;;;;;;;2.97;0.40;;;8.60;99.90;;;8.24;69.23;99874.78;4858650;28;103656;-37
2023/12/22 02:12:05;;;;;;;3.47;0.50;;;8.50;99.90;;;8.26;69.43;99872.13;4835744;28;103194;-43
2023/12/22 02:14:32;;;;;;;0.60;0.20;;;8.60;99.90;;;8.35;69.09;99866.53;4859913;28;106528;-38
2023/12/22 02:17:15;;;;;;;4.10;0.50;;;8.70;99.90;;;8.34;68.91;99876.19;4842478;28;97656;-36
2023/12/22 02:19:43;;;;;;;3.03;0.53;;;8.60;99.90;;;8.44;68.70;99871.44;4811322;28;105752;-37
2023/12/22 02:22:24;;;;;;;3.13;0.60;;;8.70;99.90;;;8.56;68.50;99875.38;4871546;28;100344;-36
2023/12/22 02:24:51;;;;;;;3.20;0.63;;;8.80;99.90;;;8.58;68.38;99879.63;4852722;28;99138;-36
2023/12/22 02:27:44;;;;;;;1.37;0.40;;;8.80;99.90;;;8.55;68.17;99879.78;4882831;28;99778;-36
2023/12/22 02:30:32;;;;;;;4.07;0.50;;;8.80;99.90;;;8.52;68.63;99887.75;4904184;28;102169;-37
2023/12/22 02:33:03;;;;;;;1.80;0.20;;;8.80;99.90;;;8.58;68.63;99890.16;4901934;28;101398;-39
2023/12/22 02:35:42;;;;;;;1.90;0.50;;;8.90;99.90;;;8.63;68.25;99888.19;4905858;28;97871;-37
2023/12/22 02:38:09;;;;;;;4.17;0.50;;;8.90;99.90;;;8.58;68.84;99874.38;4907472;28;97209;-38
2023/12/22 02:40:36;;;;;;;3.13;0.50;;;8.90;99.90;;;8.61;68.93;99873.41;4906637;28;126657;-38
2023/12/22 02:43:03;;;;;;;2.27;0.43;;;8.90;99.90;;;8.80;68.61;99868.25;4871544;28;104966;-41
2023/12/22 02:45:30;;;;;;;4.60;0.57;;;9.10;99.90;;;8.60;68.24;99867.28;4907602;28;98275;-38
2023/12/22 02:47:56;;;;;;;2.93;0.93;;;8.90;99.90;;;8.61;68.49;99863.75;4882807;28;97496;-38
2023/12/22 02:50:21;;;;;;;0.30;0.10;;;8.90;99.90;;;8.46;68.12;99885.38;4903397;28;115292;-37
2023/12/22 02:52:50;;;;;;;1.90;0.20;;;8.70;99.90;;;8.57;68.61;99887.59;4904530;28;127120;-37
2023/12/22 02:55:22;;;;;;;4.20;0.77;;;8.80;99.90;;;8.77;67.88;99889.41;4915278;28;97783;-38
2023/12/22 02:57:48;;;;;;;0.63;0.33;;;9.10;99.90;;;8.83;68.66;99883.94;4909116;28;101098;-37
2023/12/22 03:00:14;;;;;;;1.43;0.30;;;9.10;99.90;;;8.81;68.00;99883.09;4909803;28;128177;-45
2023/12/22 03:02:40;;;;;;;2.80;0.63;;;9.10;99.90;;;8.76;68.29;99879.81;4901497;28;99193;-38
2023/12/22 03:05:07;;;;;;;1.83;0.50;;;9.00;99.90;;;8.86;67.53;99873.28;4913228;28;97980;-38
2023/12/22 03:07:33;;;;;;;4.20;1.00;;;9.10;99.90;;;9.02;67.38;99858.56;4909973;28;97202;-38
2023/12/22 03:10:02;;;;;;;2.97;0.87;;;9.30;99.90;;;9.13;67.25;99866.88;4897904;28;102029;-37
2023/12/22 03:12:28;;;;;;;2.60;0.40;;;9.30;99.90;;;9.15;67.83;99858.91;4878138;28;99106;-37
2023/12/22 03:14:54;;;;;;;6.00;0.60;;;9.30;99.90;;;9.32;66.41;99863.44;4907254;28;97407;-37
2023/12/22 03:17:20;;;;;;;8.33;0.73;;;9.40;99.90;;;9.45;66.13;99857.59;4906510;28;100570;-38
2023/12/22 03:19:45;;;;;;;1.83;0.30;;;9.50;99.90;;;9.53;65.27;99855.47;4875532;28;97925;-37
2023/12/22 03:22:16;;;;;;;3.80;0.43;;;9.60;99.90;;;9.67;66.56;99852.22;4899038;28;109360;-37
2023/12/22 03:24:53;;;;;;;2.20;0.37;;;9.60;99.90;;;9.86;64.71;99854.03;4845470;28;102044;-37
2023/12/22 03:27:21;;;;;;;1.33;0.50;;;9.80;99.90;;;9.89;64.59;99851.25;4902606;28;97372;-38
2023/12/22 03:29:47;;;;;;;5.07;0.60;;;9.80;99.90;;;10.04;63.97;99855.84;4902996;28;123825;-38
2023/12/22 03:32:12;;;;;;;2.50;0.50;;;9.90;99.90;;;10.08;64.39;99860.03;4911970;28;97952;-37
2023/12/22 03:34:38;;;;;;;6.23;0.53;;;9.90;99.90;;;10.01;63.87;99866.53;4902551;28;110940;-38
2023/12/22 03:37:04;;;;;;;1.50;0.47;;;9.90;99.90;;;9.99;63.74;99871.00;4908826;28;97338;-38
2023/12/22 03:39:31;;;;;;;1.43;0.47;;;9.90;99.90;;;10.03;63.88;99869.94;4893324;28;117483;-38
2023/12/22 03:42:05;;;;;;;5.73;0.77;;;9.90;99.90;;;10.09;63.17;99874.91;4887637;28;101468;-37
2023/12/22 03:44:31;;;;;;;6.23;0.70;;;10.00;99.90;;;10.22;63.21;99876.09;4888020;28;98562;-35
2023/12/22 03:46:57;;;;;;;1.50;0.63;;;10.00;99.90;;;10.13;63.15;99887.03;4893248;28;104716;-38
2023/12/22 03:49:23;;;;;;;4.10;0.50;;;10.00;99.90;;;10.09;63.41;99875.75;4909944;28;102995;-35
2023/12/22 03:51:49;;;;;;;2.93;0.60;;;10.00;99.90;;;10.24;64.12;99874.22;4873460;28;122597;-38
2023/12/22 03:54:20;;;;;;;3.40;0.60;;;10.00;99.90;;;10.23;63.29;99880.44;4884292;28;97571;-38
2023/12/22 03:56:46;;;;;;;4.33;0.70;;;10.00;99.90;;;10.26;63.47;99887.34;4889929;28;97438;-37
2023/12/22 03:59:13;;;;;;;4.37;0.70;;;10.10;99.90;;;10.24;63.09;99878.66;4898560;28;105153;-37
2023/12/22 04:01:38;;;;;;;1.37;0.20;;;10.10;99.90;;;10.25;63.10;99875.94;4897428;28;101082;-38
2023/12/22 04:04:04;;;;;;;4.03;0.77;;;10.10;99.90;;;10.38;64.18;99877.06;4921404;28;97487;-38
2023/12/22 04:06:30;;;;;;;5.20;0.60;;;10.20;99.90;;;10.38;62.90;99871.81;4902745;28;112358;-37
2023/12/22 04:09:00;;;;;;;0.80;0.70;;;10.20;99.90;;;10.50;62.40;99877.44;4884850;28;98632;-38
2023/12/22 04:11:26;;;;;;;2.80;0.60;;;10.20;99.90;;;10.52;63.40;99862.38;4903293;28;125392;-38
2023/12/22 04:13:52;;;;;;;3.23;0.43;;;10.20;99.90;;;10.88;63.12;99857.13;4844920;28;97496;-38
2023/12/22 04:16:17;;;;;;;1.27;0.60;;;10.60;99.90;;;10.50;63.14;99864.25;4828954;28;98281;-38
2023/12/22 04:18:43;;;;;;;2.70;0.70;;;10.40;99.90;;;10.16;62.60;99865.81;4906718;28;100233;-37
2023/12/22 04:21:10;;;;;;;4.30;1.17;;;10.20;99.90;;;9.87;63.08;99858.38;4889105;28;98865;-37
2023/12/22 04:23:36;;;;;;;1.70;0.50;;;10.00;99.90;;;9.80;64.18;99850.75;4867811;28;97427;-44
2023/12/22 04:26:02;;;;;;;3.27;1.13;;;9.90;99.90;;;9.99;63.45;99853.41;4872896;28;97555;-37
2023/12/22 04:28:28;;;;;;;3.50;1.00;;;10.10;99.90;;;10.07;64.64;99834.59;4883084;28;100042;-38
2023/12/22 04:30:53;;;;;;;4.17;0.97;;;10.10;99.90;;;10.19;61.91;99823.50;4887493;28;118968;-37
2023/12/22 04:33:19;;;;;;;7.27;1.77;;;10.30;99.90;;;10.04;61.02;99825.06;4902996;28;97208;-37
2023/12/22 04:35:56;;;;;;;8.33;0.77;;;10.30;99.90;;;10.30;63.20;99789.63;4902259;28;97779;-37
2023/12/22 04:38:24;;;;;;;2.83;0.73;;;10.50;99.90;;;10.23;60.24;99833.00;4880155;28;98745;-38
2023/12/22 04:40:50;;;;;;;1.67;0.50;;;10.60;99.90;;;10.25;61.65;99868.03;4855762;28;120055;-37
2023/12/22 04:43:24;;;;;;;4.43;0.63;;;10.50;99.90;;;10.28;62.29;99896.91;4806357;28;98666;-38
2023/12/22 04:45:52;;;;;;;5.33;0.60;;;10.60;99.90;;;10.25;62.96;99897.03;4885177;28;98374;-38
2023/12/22 04:48:23;;;;;;;2.00;0.40;;;10.40;99.90;;;10.60;63.80;99866.38;4836222;28;122888;-37
2023/12/22 04:50:58;;;;;;;5.47;1.17;;;10.50;99.90;;;10.37;61.39;99888.56;4899074;28;97501;-38
2023/12/22 04:53:26;;;;;;;5.10;0.87;;;10.50;99.90;;;10.38;62.28;99892.91;4883538;28;99018;-38
2023/12/22 04:55:59;;;;;;;6.20;0.77;;;10.50;99.90;;;10.00;62.24;99892.00;4905356;28;97311;-38
2023/12/22 04:58:25;;;;;;;3.20;0.63;;;10.20;99.90;;;10.06;62.41;99888.22;4905110;28;98530;-36
2023/12/22 05:00:51;;;;;;;7.73;0.90;;;10.20;99.90;;;10.21;63.07;99884.94;4893888;28;113478;-36
2023/12/22 05:03:22;;;;;;;5.13;0.57;;;10.30;99.90;;;10.47;61.76;99902.16;4896836;28;97363;-37
2023/12/22 05:05:47;;;;;;;2.30;0.70;;;10.50;99.90;;;10.46;61.33;99892.56;4882977;28;107368;-38
2023/12/22 05:08:13;;;;;;;2.73;0.50;;;10.60;99.90;;;10.18;62.33;99898.22;4853816;28;118656;-38
2023/12/22 05:10:39;;;;;;;0.60;0.17;;;10.40;99.90;;;10.16;62.54;99902.72;4895190;28;98374;-37
2023/12/22 05:13:05;;;;;;;5.03;0.93;;;10.30;99.90;;;9.94;63.65;99886.16;4907074;28;99114;-37
2023/12/22 05:15:37;;;;;;;6.23;1.23;;;10.20;99.90;;;9.93;64.07;99881.81;4818260;28;106200;-38
2023/12/22 05:18:03;;;;;;;5.90;0.83;;;10.20;99.90;;;9.88;64.08;99882.03;4895111;28;132923;-38
2023/12/22 05:20:28;;;;;;;1.53;0.53;;;10.20;99.90;;;9.85;64.20;99879.53;4840617;28;101580;-38
2023/12/22 05:22:54;;;;;;;4.67;0.50;;;10.10;99.90;;;9.92;63.69;99878.31;4875432;28;97206;-38
2023/12/22 05:25:23;;;;;;;5.77;0.73;;;10.20;99.90;;;10.08;64.01;99878.47;4905519;28;98354;-37
2023/12/22 05:27:49;;;;;;;6.87;1.30;;;10.30;99.90;;;10.18;62.67;99879.78;4884174;28;109797;-38
2023/12/22 05:30:14;;;;;;;3.13;0.60;;;10.50;99.90;;;10.35;62.73;99892.19;4908990;28;99747;-37
2023/12/22 05:32:40;;;;;;;0.77;0.20;;;10.60;99.90;;;10.32;61.69;99903.75;4844488;28;108366;-42
2023/12/22 05:35:06;;;;;;;6.63;1.10;;;10.70;99.90;;;10.19;62.57;99907.84;4891317;28;105079;-38
2023/12/22 05:37:32;;;;;;;2.90;0.40;;;10.50;99.90;;;10.23;63.38;99893.63;4889882;28;99188;-38
2023/12/22 05:39:58;;;;;;;3.83;0.60;;;10.50;99.90;;;10.17;62.42;99904.41;4905574;28;121328;-37
2023/12/22 05:42:23;;;;;;;3.47;0.70;;;10.50;99.90;;;9.97;62.02;99917.63;4857059;28;112481;-37
2023/12/22 05:44:52;;;;;;;6.93;0.93;;;10.30;99.90;;;9.97;62.10;99913.19;4867551;28;97360;-37
2023/12/22 05:47:27;;;;;;;3.77;0.73;;;10.30;99.90;;;10.11;62.31;99915.22;4897690;28;102884;-38
2023/12/22 05:49:56;;;;;;;4.87;1.17;;;10.40;99.90;;;10.02;62.13;99920.91;4899163;28;106386;-38
2023/12/22 05:52:22;;;;;;;5.70;0.97;;;10.40;99.90;;;10.05;62.40;99907.59;4871210;28;97749;-38
2023/12/22 05:54:48;;;;;;;7.93;1.07;;;10.40;99.90;;;10.07;63.06;99897.84;4896934;28;112349;-38
2023/12/22 05:57:21;;;;;;;4.90;0.77;;;10.30;99.90;;;10.05;62.20;99910.25;4886046;28;98957;-38
2023/12/22 05:59:46;;;;;;;6.83;1.20;;;10.30;99.90;;;10.05;61.99;99904.97;4895725;28;114261;-39
2023/12/22 06:02:13;;;;;;;5.27;1.10;;;10.40;99.90;;;10.05;62.65;99915.50;4893496;28;110450;-38
2023/12/22 06:04:41;;;;;;;2.37;0.50;;;10.30;99.90;;;10.05;61.65;99918.16;4852898;28;99700;-37
2023/12/22 06:07:07;;;;;;;5.67;0.60;;;10.40;99.90;;;9.98;61.85;99908.78;4855836;28;104333;-38
2023/12/22 06:09:32;;;;;;;2.70;0.80;;;10.30;99.90;;;10.08;61.42;99915.38;4902968;28;131679;-38
2023/12/22 06:11:58;;;;;;;3.37;1.20;;;10.40;99.90;;;10.13;60.84;99926.56;4904835;28;109099;-37
2023/12/22 06:14:24;;;;;;;1.87;0.70;;;10.50;99.90;;;10.07;61.57;99929.47;4904358;28;97412;-38
2023/12/22 06:16:50;;;;;;;5.10;1.37;;;10.40;99.90;;;10.11;61.84;99947.69;4909222;28;127345;-37
2023/12/22 06:19:21;;;;;;;3.57;0.50;;;10.40;99.90;;;10.01;61.46;99935.88;4888064;28;98670;-37
2023/12/22 06:21:57;;;;;;;7.03;1.47;;;10.40;99.90;;;10.03;61.77;99938.44;4900309;28;97339;-37
2023/12/22 06:24:23;;;;;;;2.13;0.77;;;10.30;99.90;;;10.00;61.99;99943.84;4878753;28;97599;-37
2023/12/22 06:26:50;;;;;;;3.53;0.73;;;10.30;99.90;;;10.00;61.67;99942.06;4884206;28;99482;-37
2023/12/22 06:29:15;;;;;;;4.47;0.60;;;10.30;99.90;;;9.97;61.88;99938.69;4905877;28;99532;-37
2023/12/22 06:31:41;;;;;;;6.87;1.40;;;10.30;99.90;;;10.05;62.56;99941.84;4911961;28;97157;-38
2023/12/22 06:34:08;;;;;;;3.47;0.87;;;10.30;99.90;;;10.07;61.79;99948.75;4850056;28;109794;-40
2023/12/22 06:36:34;;;;;;;3.87;0.63;;;10.40;99.90;;;10.10;62.00;99956.53;4870296;28;128038;-37
2023/12/22 06:39:02;;;;;;;4.87;0.90;;;10.40;99.90;;;10.21;61.96;99948.19;4911815;28;127619;-37
2023/12/22 06:41:30;;;;;;;4.87;0.90;;;10.50;99.90;;;10.22;62.19;99941.13;4785347;28;97715;-37
2023/12/22 06:44:03;;;;;;;3.37;0.90;;;10.50;99.90;;;10.18;61.98;99943.03;4891673;28;97586;-37
2023/12/22 06:46:30;;;;;;;6.57;0.97;;;10.50;99.90;;;10.31;62.21;99944.22;4885459;28;118154;-38
2023/12/22 06:48:56;;;;;;;5.87;0.57;;;10.60;99.90;;;10.46;61.05;99953.19;4919534;28;97847;-38
2023/12/22 06:51:30;;;;;;;4.87;0.93;;;10.70;99.90;;;10.47;61.29;99954.03;4872779;28;97577;-37
2023/12/22 06:54:00;;;;;;;2.43;0.83;;;10.70;99.90;;;10.95;61.01;99951.72;4895752;28;97578;-36
2023/12/22 06:56:33;;;;;;;7.63;1.00;;;11.10;99.90;;;11.07;59.53;99962.63;4905287;28;99146;-38
2023/12/22 06:59:02;;;;;;;1.30;0.50;;;11.20;99.90;;;10.83;59.91;99962.84;4907613;28;99384;-37
2023/12/22 07:01:33;;;;;;;2.40;1.03;;;11.20;99.90;;;10.77;61.09;99947.34;4854410;28;98744;-37
2023/12/22 07:04:00;;;;;;;6.43;1.03;;;11.00;99.90;;;10.74;61.20;99963.31;4915458;28;97446;-38
2023/12/22 07:06:35;;;;;;;3.20;0.50;;;11.00;99.90;;;10.59;60.48;99961.38;4884885;28;97999;-37
2023/12/22 07:09:33;;;;;;;5.20;0.50;;;10.90;99.90;;;10.33;60.93;99981.03;4918076;28;104574;-37
2023/12/22 07:12:03;;;;;;;6.43;1.00;;;10.60;99.90;;;10.17;61.92;99962.38;4855998;28;98409;-37
2023/12/22 07:14:29;;;;;;;3.17;0.83;;;10.50;99.90;;;10.05;63.28;99969.06;4901897;28;97707;-37
2023/12/22 07:16:57;;;;;;;6.13;1.77;;;10.30;99.90;;;10.10;63.86;99971.47;4909297;28;99575;-38
2023/12/22 07:19:22;;;;;;;3.90;1.23;;;10.30;99.90;;;10.05;64.31;99962.94;4900554;28;107282;-37
2023/12/22 07:21:52;;;;;;;5.17;0.97;;;10.30;99.90;;;9.97;65.10;99951.88;4906242;28;100306;-36
2023/12/22 07:24:19;;;;;;;5.80;1.37;;;10.20;99.90;;;9.92;65.66;99951.22;4906701;28;105998;-38
2023/12/22 07:26:44;;;;;;;5.03;0.93;;;10.20;99.90;;;9.91;65.81;99960.91;4907022;28;98989;-36
2023/12/22 07:29:25;;;;;;;7.83;0.97;;;10.20;99.90;;;9.97;65.77;99965.88;4850395;28;120578;-37
2023/12/22 07:31:52;;;;;;;4.53;1.20;;;10.30;99.90;;;10.24;64.46;99957.72;4895243;28;97622;-38
2023/12/22 07:34:18;;;;;;;1.60;0.47;;;10.50;99.90;;;9.86;65.31;99972.56;4905394;28;106034;-37
2023/12/22 07:36:44;;;;;;;1.90;0.30;;;10.20;99.90;;;9.73;66.60;99973.09;4905387;28;99541;-34
2023/12/22 07:39:15;;;;;;;3.70;0.30;;;10.10;99.90;;;9.57;68.31;99977.31;4880523;28;98035;-37
2023/12/22 07:41:41;;;;;;;4.80;0.57;;;9.90;99.90;;;9.33;70.37;99994.13;4831715;28;97538;-37
2023/12/22 07:44:07;;;;;;;0.30;0.30;;;9.60;99.90;;;9.24;70.24;99955.88;4913098;28;108610;-38
2023/12/22 07:46:33;;;;;;;6.40;0.80;;;9.60;99.90;;;9.16;70.96;99950.94;4906030;28;98926;-37
2023/12/22 07:48:59;;;;;;;3.57;0.70;;;9.50;99.90;;;9.15;70.51;99949.22;4894777;28;99030;-37
2023/12/22 07:51:25;;;;;;;1.53;0.50;;;9.50;99.90;;;9.14;71.05;99950.13;4894504;28;100266;-36
2023/12/22 07:53:52;;;;;;;7.17;1.17;;;9.40;99.90;;;9.21;71.09;99970.00;4886534;28;107317;-37
2023/12/22 07:56:18;;;;;;;2.03;0.70;;;9.50;99.90;;;9.17;71.61;99989.47;4907654;28;106014;-36
2023/12/22 07:58:43;;;;;;;4.67;0.90;;;9.50;99.90;;;9.06;72.23;100004.84;4885520;28;116407;-36
2023/12/22 08:01:09;;;;;;;1.33;0.47;;;9.40;99.90;;;9.14;72.19;99984.34;4899695;28;97761;-35
2023/12/22 08:03:35;;;;;;;8.17;1.50;;;9.40;99.90;;;9.09;72.37;99974.91;4902572;28;97748;-37
2023/12/22 08:06:01;;;;;;;1.40;0.70;;;9.40;99.90;;;9.13;72.40;99958.97;4905086;28;98582;-36
2023/12/22 08:08:27;;;;;;;2.43;0.70;;;9.50;99.90;;;9.51;70.78;99945.97;4902034;28;98575;-37
2023/12/22 08:10:52;;;;;;;4.30;1.70;;;9.80;99.90;;;9.72;70.27;99939.78;4882510;28;110837;-37
2023/12/22 08:13:18;;;;;;;8.17;1.93;;;10.10;99.90;;;10.11;67.88;99938.94;4891186;28;97432;-36
2023/12/22 08:15:47;;;;;;;3.83;1.30;;;10.30;99.90;;;10.06;68.72;99943.56;4887448;28;99566;-37
2023/12/22 08:18:12;;;;;;;5.40;1.53;;;10.40;99.90;;;10.00;69.15;99954.38;4885491;28;99264;-38
2023/12/22 08:20:38;;;;;;;7.93;1.37;;;10.40;99.90;;;10.24;67.88;99953.31;4888363;28;97942;-37
2023/12/22 08:23:04;;;;;;;4.77;1.33;;;10.60;99.90;;;10.47;67.19;99951.41;4903778;28;97319;-36
2023/12/22 08:25:30;;;;;;;5.60;0.97;;;10.70;99.90;;;10.41;67.96;99961.31;4900680;28;98406;-36
2023/12/22 08:27:56;;;;;;;7.37;1.70;;;10.70;99.90;;;10.74;66.20;99955.41;4902012;28;98917;-37
2023/12/22 08:30:25;;;;;;;8.50;1.27;;;10.90;99.90;;;10.60;68.09;99956.03;4854525;28;101577;-35
2023/12/22 08:32:51;;;;;;;10.10;1.40;;;10.80;99.90;;;10.93;64.98;99958.84;4858827;28;97580;-36
2023/12/22 08:35:17;;;;;;;4.90;2.30;;;11.00;99.90;;;10.71;67.54;99974.00;4836095;28;111160;-37
2023/12/22 08:37:42;;;;;;;6.37;1.53;;;11.00;99.90;;;10.51;68.29;99974.06;4786095;28;114528;-37
2023/12/22 08:40:11;;;;;;;7.30;1.60;;;10.80;99.90;;;10.64;68.47;99962.03;4838247;28;112602;-37
2023/12/22 08:42:37;;;;;;;14.33;1.70;;;10.90;99.90;;;10.63;68.46;99952.41;4849752;28;97770;-37
2023/12/22 08:45:05;;;;;;;11.10;2.13;;;10.80;99.90;;;10.62;68.74;99948.91;4802764;28;105748;-37
2023/12/22 08:47:31;;;;;;;10.07;1.87;;;10.90;99.90;;;10.80;67.79;99954.25;4846611;28;100115;-36
2023/12/22 08:49:57;;;;;;;4.40;1.37;;;11.10;99.90;;;10.92;67.08;99957.16;4875562;28;101659;-39
2023/12/22 08:52:22;;;;;;;10.13;1.77;;;11.20;99.90;;;11.00;67.10;99960.28;4835148;28;100430;-35
2023/12/22 08:54:48;;;;;;;7.30;1.70;;;11.20;99.90;;;11.14;66.34;99956.09;4851364;28;112574;-39
2023/12/22 08:57:14;;;;;;;8.13;2.03;;;11.40;99.90;;;11.06;67.01;99953.00;4837110;28;103718;-38
2023/12/22 08:59:42;;;;;;;7.63;1.60;;;11.30;99.90;;;11.20;66.16;99940.81;4867828;28;109068;-37
2023/12/22 09:02:08;;;;;;;3.03;1.00;;;11.40;99.90;;;11.41;64.66;99938.88;4835095;28;106484;-37
2023/12/22 09:04:38;;;;;;;8.97;1.87;;;11.60;99.90;;;11.20;65.62;99947.91;4866189;28;118924;-38
2023/12/22 09:07:07;;;;;;;5.87;1.30;;;11.60;99.90;;;11.40;64.71;99942.47;4784450;28;101888;-37
2023/12/22 09:09:33;;;;;;;8.30;1.73;;;11.70;99.90;;;11.40;65.11;99937.19;4833855;28;100473;-39
2023/12/22 09:12:02;;;;;;;5.97;1.50;;;11.70;99.90;;;11.52;64.22;99930.44;4834137;28;110452;-37
2023/12/22 09:14:35;;;;;;;10.37;1.73;;;11.80;99.90;;;11.65;63.68;99930.66;4807556;28;102237;-38
2023/12/22 09:17:00;;;;;;;9.73;1.10;;;11.90;99.90;;;11.57;64.32;99928.41;4768102;28;98644;-37
2023/12/22 09:19:27;;;;;;;3.87;1.13;;;11.90;99.90;;;11.52;64.25;99926.00;4845194;28;100544;-37
2023/12/22 09:21:53;;;;;;;4.47;1.43;;;12.00;99.90;;;11.59;64.60;99932.69;4837362;28;100235;-37
2023/12/22 09:24:21;;;;;;;3.87;1.07;;;11.90;99.90;;;11.86;62.67;99926.94;4724238;28;100964;-39
2023/12/22 09:26:47;;;;;;;5.37;1.20;;;12.10;99.90;;;11.82;63.06;99922.75;4822275;28;97730;-36
2023/12/22 09:29:16;;;;;;;5.77;1.63;;;12.20;99.90;;;12.05;62.04;99930.34;4822827;28;98644;-35
2023/12/22 09:31:48;;;;;;;7.43;1.87;;;12.40;99.90;;;12.21;61.26;99915.34;4767693;28;104725;-37
2023/12/22 09:34:16;;;;;;;5.83;1.30;;;12.40;99.90;;;12.04;62.69;99907.47;4818145;28;98590;-37
2023/12/22 09:36:48;;;;;;;3.07;1.23;;;12.40;99.90;;;12.20;61.21;99913.66;4818359;28;107786;-37
2023/12/22 09:39:16;;;;;;;7.10;1.23;;;12.60;99.90;;;11.95;62.89;99921.16;4796715;28;98798;-38
2023/12/22 09:41:49;;;;;;;13.70;1.43;;;12.30;99.90;;;11.87;62.99;99921.59;4825305;28;100359;-38
2023/12/22 09:44:28;;;;;;;5.37;1.20;;;12.20;99.90;;;12.14;62.05;99910.47;4761294;28;107573;-37
2023/12/22 09:46:56;;;;;;;2.87;1.47;;;12.40;99.90;;;12.13;61.95;99898.19;4746352;28;101799;-38
2023/12/22 09:49:23;;;;;;;6.67;1.50;;;12.40;99.90;;;12.19;62.06;99896.06;4831572;28;103197;-37
2023/12/22 09:51:50;;;;;;;5.77;1.50;;;12.50;99.90;;;12.19;61.83;99901.38;4852926;28;100675;-37
2023/12/22 09:54:17;;;;;;;5.83;1.73;;;12.50;99.90;;;12.07;62.50;99890.59;4821486;28;101000;-38
2023/12/22 09:56:47;;;;;;;2.67;1.17;;;12.40;99.90;;;12.09;63.11;99879.00;4785527;28;116806;-37
2023/12/22 09:59:13;;;;;;;9.53;1.37;;;12.40;99.90;;;11.81;64.04;99873.47;4737618;28;99845;-37
2023/12/22 10:01:47;;;;;;;6.30;1.20;;;12.20;99.90;;;11.95;63.29;99886.81;4813717;28;99139;-38
2023/12/22 10:07:22;;;;;;;9.40;2.00;;;12.10;99.90;;;11.72;64.29;99892.44;4680254;22;124825;-35
2023/12/22 10:22:10;;;;;;;5.17;1.17;;;12.00;99.90;;;11.59;65.76;99882.50;2804252;29;8732239;-42
2023/12/22 10:25:39;;;;;;;6.40;1.40;;;11.90;99.90;;;11.53;66.24;99879.31;4141484;29;5338279;-39
2023/12/22 10:28:33;;;;;;;1.60;0.71;;;11.90;99.90;;;11.62;65.54;99869.13;2498221;29;19641148;-36
2023/12/22 10:32:29;;;;;;;2.37;0.63;;;12.00;99.90;;;11.59;66.39;99864.03;3538851;29;9823695;-36
2023/12/22 10:35:37;;;;;;;3.90;0.50;;;12.10;99.90;;;11.63;66.21;99855.00;2984017;29;10533723;-40
2023/12/22 10:38:53;;;;;;;1.40;0.52;;;12.00;99.90;;;11.52;66.76;99856.47;2251006;29;41164870;-36
2023/12/22 10:42:35;;;;;;;;;;;;;;;;;;;;;
2023/12/22 10:49:39;;;;;;;3.00;0.90;;;12.00;99.90;;;11.69;67.53;99858.22;1731711;29;35656137;-37
2023/12/22 10:52:12;;;;;;;0.87;0.40;;;12.10;99.90;;;11.49;68.97;99861.94;2856591;29;19924768;-34
2023/12/22 10:54:51;;;;;;;0.50;0.33;;;11.90;99.90;;;11.65;67.92;99856.69;3979425;29;9797180;-36